createdAt,value
2022-08-29T00:01:50.563Z,71.09
2022-08-29T00:04:17.557Z,71.33
2022-08-29T00:06:49.031Z,70.48
2022-08-29T00:09:18.137Z,71.40
2022-08-29T00:11:46.774Z,71.49
2022-08-29T00:14:20.857Z,70.73
2022-08-29T00:16:50.788Z,69.96
2022-08-29T00:19:18.067Z,70.82
2022-08-29T00:21:44.910Z,70.79
2022-08-29T00:24:11.748Z,71.06
2022-08-29T00:26:38.776Z,71.44
2022-08-29T00:29:05.740Z,72.03
2022-08-29T00:31:35.120Z,72.40
2022-08-29T00:34:06.577Z,72.39
2022-08-29T00:36:33.674Z,72.03
2022-08-29T00:39:04.604Z,71.37
2022-08-29T00:41:36.379Z,71.18
2022-08-29T00:44:05.583Z,71.96
2022-08-29T00:46:41.296Z,72.64
2022-08-29T00:49:41.152Z,73.80
2022-08-29T00:52:37.375Z,73.54
2022-08-29T00:55:16.509Z,73.23
2022-08-29T00:57:55.425Z,72.31
2022-08-29T01:00:25.035Z,72.48
2022-08-29T01:02:54.964Z,72.73
2022-08-29T01:05:24.862Z,72.93
2022-08-29T01:07:56.846Z,72.82
2022-08-29T01:10:42.792Z,72.94
2022-08-29T01:13:13.032Z,73.02
2022-08-29T01:15:41.608Z,73.19
2022-08-29T01:20:53.756Z,73.20
2022-08-29T01:23:42.337Z,72.76
2022-08-29T01:26:14.233Z,73.01
2022-08-29T01:28:52.075Z,73.66
2022-08-29T01:31:46.994Z,73.62
2022-08-29T01:34:20.989Z,74.25
2022-08-29T01:37:01.873Z,73.82
2022-08-29T01:39:34.721Z,72.92
2022-08-29T01:42:10.702Z,73.54
2022-08-29T01:44:39.298Z,72.84
2022-08-29T01:47:08.797Z,73.04
2022-08-29T01:49:40.964Z,73.16
2022-08-29T01:52:09.643Z,74.21
2022-08-29T01:54:36.803Z,73.26
2022-08-29T01:57:03.827Z,73.86
2022-08-29T01:59:33.455Z,73.83
2022-08-29T02:02:05.321Z,74.36
2022-08-29T02:04:32.989Z,74.18
2022-08-29T02:07:00.434Z,73.71
2022-08-29T02:09:29.018Z,73.68
2022-08-29T02:11:58.241Z,73.69
2022-08-29T02:14:30.497Z,75.02
2022-08-29T02:16:59.562Z,74.40
2022-08-29T02:19:26.560Z,74.28
2022-08-29T02:21:56.145Z,73.67
2022-08-29T02:24:26.083Z,74.16
2022-08-29T02:26:55.961Z,74.50
2022-08-29T02:29:23.740Z,74.45
2022-08-29T02:31:55.501Z,74.40
2022-08-29T02:34:23.331Z,74.78
2022-08-29T02:36:56.102Z,73.87
2022-08-29T02:39:23.294Z,73.52
2022-08-29T02:41:50.170Z,74.17
2022-08-29T02:44:20.464Z,74.24
2022-08-29T02:46:48.739Z,75.10
2022-08-29T02:49:15.761Z,75.77
2022-08-29T02:51:42.794Z,76.02
2022-08-29T02:54:12.998Z,74.68
2022-08-29T02:56:42.602Z,75.53
2022-08-29T02:59:09.714Z,75.05
2022-08-29T03:01:39.015Z,75.38
2022-08-29T03:04:08.617Z,75.14
2022-08-29T03:06:35.763Z,75.33
2022-08-29T03:09:03.131Z,75.88
2022-08-29T03:11:31.107Z,75.89
2022-08-29T03:13:58.150Z,76.11
2022-08-29T03:16:28.327Z,75.50
2022-08-29T03:18:58.299Z,76.36
2022-08-29T03:21:27.453Z,75.64
2022-08-29T03:23:56.457Z,76.15
2022-08-29T03:26:24.470Z,76.59
2022-08-29T03:28:51.613Z,76.20
2022-08-29T03:31:19.148Z,76.58
2022-08-29T03:33:46.244Z,76.57
2022-08-29T03:36:14.241Z,76.58
2022-08-29T03:38:46.451Z,77.90
2022-08-29T03:41:27.056Z,77.83
2022-08-29T03:43:55.505Z,76.51
2022-08-29T03:46:27.712Z,76.40
2022-08-29T03:51:21.889Z,75.87
2022-08-29T03:53:48.783Z,76.76
2022-08-29T03:56:18.414Z,77.48
2022-08-29T03:58:51.887Z,77.61
2022-08-29T04:01:25.225Z,77.96
2022-08-29T04:03:54.032Z,77.76
2022-08-29T04:06:28.229Z,76.60
2022-08-29T04:08:59.173Z,76.24
2022-08-29T04:11:29.893Z,77.10
2022-08-29T04:13:59.401Z,76.57
2022-08-29T04:16:30.823Z,77.14
2022-08-29T04:18:58.584Z,77.22
2022-08-29T04:21:25.994Z,77.00
2022-08-29T04:23:54.298Z,77.82
2022-08-29T04:26:37.814Z,76.76
2022-08-29T04:29:08.115Z,77.31
2022-08-29T04:31:39.195Z,78.77
2022-08-29T04:34:12.059Z,79.65
2022-08-29T04:36:42.569Z,79.50
2022-08-29T04:39:10.460Z,80.22
2022-08-29T04:41:41.038Z,79.99
2022-08-29T04:44:11.913Z,79.76
2022-08-29T04:46:39.934Z,79.51
2022-08-29T04:49:09.422Z,79.59
2022-08-29T04:51:38.984Z,79.21
2022-08-29T04:54:11.428Z,78.51
2022-08-29T04:56:38.900Z,78.97
2022-08-29T04:59:14.577Z,79.06
2022-08-29T05:01:42.538Z,79.08
2022-08-29T05:04:13.821Z,79.53
2022-08-29T05:06:41.953Z,79.38
2022-08-29T05:09:08.905Z,78.71
2022-08-29T05:11:35.834Z,78.83
2022-08-29T05:14:02.686Z,79.44
2022-08-29T05:16:31.190Z,79.62
2022-08-29T05:18:59.688Z,80.06
2022-08-29T05:21:35.031Z,79.29
2022-08-29T05:24:06.114Z,79.33
2022-08-29T05:26:40.538Z,78.97
2022-08-29T05:29:12.465Z,78.50
2022-08-29T05:31:45.294Z,78.31
2022-08-29T05:34:34.295Z,78.79
2022-08-29T05:37:05.249Z,78.89
2022-08-29T05:39:33.236Z,79.17
2022-08-29T05:42:00.568Z,79.11
2022-08-29T05:44:32.908Z,79.06
2022-08-29T05:47:07.329Z,78.63
2022-08-29T05:49:37.543Z,78.89
2022-08-29T05:52:05.970Z,77.83
2022-08-29T05:54:41.482Z,77.85
2022-08-29T05:57:18.684Z,77.24
2022-08-29T05:59:51.103Z,77.90
2022-08-29T06:02:25.280Z,77.68
2022-08-29T06:04:52.879Z,77.08
2022-08-29T06:07:20.158Z,77.21
2022-08-29T06:09:47.388Z,77.50
2022-08-29T06:12:18.066Z,76.44
2022-08-29T06:14:50.607Z,76.85
2022-08-29T06:17:18.039Z,76.19
2022-08-29T06:19:44.944Z,75.95
2022-08-29T06:22:16.556Z,76.90
2022-08-29T06:24:45.221Z,77.32
2022-08-29T06:27:16.797Z,76.04
2022-08-29T06:29:44.016Z,75.73
2022-08-29T06:32:16.303Z,76.87
2022-08-29T06:34:43.221Z,76.16
2022-08-29T06:37:10.472Z,75.93
2022-08-29T06:39:37.372Z,76.13
2022-08-29T06:42:05.574Z,75.96
2022-08-29T06:44:32.600Z,76.55
2022-08-29T06:47:04.354Z,75.62
2022-08-29T06:49:33.364Z,75.32
2022-08-29T06:52:00.372Z,75.62
2022-08-29T06:54:30.014Z,75.66
2022-08-29T06:56:59.683Z,74.93
2022-08-29T06:59:27.362Z,73.80
2022-08-29T07:01:55.492Z,73.00
2022-08-29T07:04:22.563Z,71.90
2022-08-29T07:06:53.283Z,71.16
2022-08-29T07:09:23.131Z,70.55
2022-08-29T07:11:50.042Z,69.74
2022-08-29T07:14:16.947Z,70.02
2022-08-29T07:16:43.910Z,69.52
2022-08-29T07:19:11.342Z,69.73
2022-08-29T07:21:41.340Z,69.36
2022-08-29T07:24:08.727Z,68.44
2022-08-29T07:26:43.358Z,67.31
2022-08-29T07:29:18.777Z,66.33
2022-08-29T07:31:47.489Z,65.93
2022-08-29T07:34:14.749Z,64.43
2022-08-29T07:36:41.729Z,62.25
2022-08-29T07:39:16.567Z,61.41
2022-08-29T07:41:44.885Z,58.40
2022-08-29T07:44:13.465Z,57.37
2022-08-29T07:46:40.962Z,55.78
2022-08-29T07:49:08.267Z,56.17
2022-08-29T07:51:35.810Z,57.13
2022-08-29T07:54:04.595Z,58.43
2022-08-29T07:56:38.249Z,58.93
2022-08-29T07:59:06.161Z,58.78
2022-08-29T08:01:38.276Z,58.57
2022-08-29T08:04:06.773Z,57.98
2022-08-29T08:06:38.196Z,58.92
2022-08-29T08:09:07.895Z,58.81
2022-08-29T08:11:36.442Z,58.71
2022-08-29T08:14:06.198Z,57.55
2022-08-29T08:16:33.798Z,55.80
2022-08-29T08:19:03.999Z,52.55
2022-08-29T08:21:30.944Z,52.26
2022-08-29T08:24:00.646Z,51.57
2022-08-29T08:26:27.800Z,50.75
2022-08-29T08:28:55.359Z,49.90
2022-08-29T08:31:22.859Z,49.92
2022-08-29T08:33:50.012Z,50.39
2022-08-29T08:36:31.250Z,48.42
2022-08-29T08:39:00.123Z,47.82
2022-08-29T08:41:49.520Z,49.05
2022-08-29T08:44:22.420Z,48.70
2022-08-29T08:46:55.556Z,49.10
2022-08-29T08:49:47.931Z,49.97
2022-08-29T08:52:22.371Z,49.38
2022-08-29T08:55:28.478Z,50.05
2022-08-29T08:58:29.157Z,49.16
2022-08-29T09:01:01.608Z,49.43
2022-08-29T09:04:17.668Z,47.65
2022-08-29T09:07:09.925Z,47.90
2022-08-29T09:10:25.990Z,48.92
2022-08-29T09:13:26.127Z,48.19
2022-08-29T09:15:56.830Z,47.41
2022-08-29T09:18:40.916Z,46.64
2022-08-29T09:21:39.981Z,45.23
2022-08-29T09:24:13.218Z,43.47
2022-08-29T09:26:40.866Z,44.55
2022-08-29T09:29:09.859Z,45.33
2022-08-29T09:31:37.623Z,45.86
2022-08-29T09:34:11.836Z,46.54
2022-08-29T09:36:56.310Z,46.71
2022-08-29T09:39:31.285Z,46.60
2022-08-29T09:42:21.696Z,43.52
2022-08-29T09:44:58.632Z,40.27
2022-08-29T09:47:32.969Z,40.41
2022-08-29T09:50:26.727Z,42.05
2022-08-29T09:53:01.165Z,42.81
2022-08-29T09:55:32.554Z,43.78
2022-08-29T09:58:07.614Z,44.66
2022-08-29T10:00:46.170Z,44.41
2022-08-29T10:03:24.645Z,42.57
2022-08-29T10:06:28.091Z,37.51
2022-08-29T10:09:12.571Z,33.51
2022-08-29T10:11:56.196Z,31.90
2022-08-29T10:14:35.526Z,34.50
2022-08-29T10:17:25.430Z,35.37
2022-08-29T10:19:52.434Z,34.44
2022-08-29T10:22:36.681Z,33.75
2022-08-29T10:25:25.221Z,33.97
2022-08-29T10:28:00.513Z,32.84
2022-08-29T10:31:08.812Z,31.32
2022-08-29T10:34:13.818Z,33.29
2022-08-29T10:36:47.260Z,33.98
2022-08-29T10:39:18.086Z,33.20
2022-08-29T10:41:50.273Z,30.20
2022-08-29T10:44:40.223Z,28.53
2022-08-29T10:47:26.937Z,27.84
2022-08-29T10:50:43.078Z,27.10
2022-08-29T10:53:14.710Z,29.33
2022-08-29T10:55:59.555Z,28.10
2022-08-29T10:58:57.005Z,28.97
2022-08-29T11:01:40.827Z,27.72
2022-08-29T11:04:18.034Z,27.74
2022-08-29T11:06:51.618Z,28.11
2022-08-29T11:09:28.908Z,27.99
2022-08-29T11:12:28.257Z,27.96
2022-08-29T11:15:29.422Z,26.59
2022-08-29T11:18:06.204Z,28.65
2022-08-29T11:20:40.956Z,31.75
2022-08-29T11:23:41.808Z,34.34
2022-08-29T11:26:27.484Z,32.07
2022-08-29T11:29:25.343Z,30.54
2022-08-29T11:32:36.297Z,32.34
2022-08-29T11:35:20.443Z,33.93
2022-08-29T11:37:56.334Z,32.82
2022-08-29T11:41:27.165Z,32.97
2022-08-29T11:44:24.948Z,32.87
2022-08-29T11:46:53.068Z,32.87
2022-08-29T11:49:38.259Z,33.72
2022-08-29T11:52:11.500Z,33.26
2022-08-29T11:54:39.966Z,32.53
2022-08-29T11:57:09.926Z,34.23
2022-08-29T11:59:48.632Z,34.23
2022-08-29T12:02:30.806Z,34.42
2022-08-29T12:05:02.009Z,34.99
2022-08-29T12:07:54.917Z,36.60
2022-08-29T12:10:24.215Z,36.56
2022-08-29T12:13:00.617Z,36.84
2022-08-29T12:15:27.374Z,36.80
2022-08-29T12:18:13.453Z,35.47
2022-08-29T12:20:50.520Z,35.21
2022-08-29T12:23:33.885Z,34.21
2022-08-29T12:26:22.882Z,34.33
2022-08-29T12:29:10.542Z,34.19
2022-08-29T12:32:24.403Z,33.94
2022-08-29T12:35:27.246Z,32.88
2022-08-29T12:38:28.620Z,33.06
2022-08-29T12:41:40.894Z,34.12
2022-08-29T12:44:16.569Z,33.72
2022-08-29T12:46:46.803Z,32.82
2022-08-29T12:49:18.788Z,32.34
2022-08-29T12:51:55.978Z,32.35
2022-08-29T12:54:37.825Z,32.24
2022-08-29T12:57:21.440Z,32.22
2022-08-29T12:59:54.445Z,33.54
2022-08-29T13:02:32.480Z,34.43
2022-08-29T13:04:59.879Z,35.25
2022-08-29T13:07:32.863Z,34.42
2022-08-29T13:10:03.775Z,33.56
2022-08-29T13:12:36.053Z,34.43
2022-08-29T13:15:20.593Z,34.90
2022-08-29T13:17:51.248Z,36.09
2022-08-29T13:20:40.377Z,35.93
2022-08-29T13:23:16.318Z,35.46
2022-08-29T13:26:12.684Z,34.36
2022-08-29T13:28:43.479Z,34.23
2022-08-29T13:31:16.234Z,33.32
2022-08-29T13:33:47.939Z,34.01
2022-08-29T13:36:42.335Z,33.98
2022-08-29T13:39:19.050Z,34.58
2022-08-29T13:41:51.317Z,34.80
2022-08-29T13:44:21.858Z,35.02
2022-08-29T13:46:51.480Z,34.88
2022-08-29T13:49:33.613Z,35.90
2022-08-29T13:52:01.833Z,36.27
2022-08-29T13:54:39.227Z,37.38
2022-08-29T13:57:07.966Z,37.21
2022-08-29T13:59:36.904Z,36.75
2022-08-29T14:02:09.318Z,37.73
2022-08-29T14:04:41.212Z,38.76
2022-08-29T14:07:19.789Z,38.98
2022-08-29T14:09:50.183Z,39.23
2022-08-29T14:12:18.324Z,38.56
2022-08-29T14:14:46.076Z,37.99
2022-08-29T14:17:18.872Z,38.56
2022-08-29T14:19:47.290Z,38.86
2022-08-29T14:22:14.875Z,38.71
2022-08-29T14:24:42.568Z,39.67
2022-08-29T14:27:12.217Z,39.33
2022-08-29T14:29:41.152Z,38.68
2022-08-29T14:32:12.779Z,38.93
2022-08-29T14:34:49.274Z,39.64
2022-08-29T14:37:22.079Z,39.73
2022-08-29T14:39:49.862Z,39.57
2022-08-29T14:42:18.653Z,39.41
2022-08-29T14:44:46.255Z,39.31
2022-08-29T14:47:13.478Z,39.18
2022-08-29T14:49:43.831Z,39.92
2022-08-29T14:52:17.016Z,39.69
2022-08-29T14:54:43.953Z,40.22
2022-08-29T14:57:12.432Z,40.49
2022-08-29T14:59:40.517Z,41.10
2022-08-29T15:02:10.337Z,41.19
2022-08-29T15:04:39.696Z,41.67
2022-08-29T15:07:10.315Z,41.37
2022-08-29T15:09:41.721Z,41.53
2022-08-29T15:12:11.002Z,41.30
2022-08-29T15:14:42.572Z,41.07
2022-08-29T15:17:10.300Z,41.67
2022-08-29T15:20:31.554Z,42.34
2022-08-29T15:22:28.520Z,43.00
2022-08-29T15:24:57.865Z,42.92
2022-08-29T15:27:27.643Z,43.39
2022-08-29T15:29:57.898Z,45.04
2022-08-29T15:32:25.059Z,44.29
2022-08-29T15:34:54.688Z,45.11
2022-08-29T15:37:22.378Z,45.86
2022-08-29T15:39:54.434Z,46.16
2022-08-29T15:42:30.339Z,47.57
2022-08-29T15:45:02.423Z,47.85
2022-08-29T15:47:35.145Z,48.65
2022-08-29T15:50:04.535Z,48.27
2022-08-29T15:52:31.462Z,49.58
2022-08-29T15:54:58.532Z,50.01
2022-08-29T15:57:28.114Z,50.22
2022-08-29T15:59:58.054Z,50.25
2022-08-29T16:02:27.094Z,49.33
2022-08-29T16:04:57.023Z,49.85
2022-08-29T16:07:29.632Z,50.65
2022-08-29T16:10:04.801Z,50.21
2022-08-29T16:12:39.042Z,49.49
2022-08-29T16:15:09.644Z,50.02
2022-08-29T16:17:37.201Z,49.64
2022-08-29T16:20:11.521Z,49.70
2022-08-29T16:22:40.084Z,49.92
2022-08-29T16:25:11.974Z,50.90
2022-08-29T16:27:39.445Z,50.47
2022-08-29T16:30:09.812Z,50.58
2022-08-29T16:32:37.804Z,50.73
2022-08-29T16:35:06.367Z,50.69
2022-08-29T16:37:33.870Z,51.00
2022-08-29T16:40:03.705Z,50.76
2022-08-29T16:42:31.076Z,51.68
2022-08-29T16:44:59.779Z,52.17
2022-08-29T16:47:27.911Z,52.83
2022-08-29T16:49:54.783Z,52.52
2022-08-29T16:52:21.972Z,53.13
2022-08-29T16:54:53.662Z,53.60
2022-08-29T16:57:23.759Z,53.78
2022-08-29T16:59:50.789Z,54.04
2022-08-29T17:02:23.257Z,54.35
2022-08-29T17:04:50.255Z,54.39
2022-08-29T17:07:19.994Z,54.98
2022-08-29T17:09:48.999Z,55.43
2022-08-29T17:12:16.313Z,55.78
2022-08-29T17:14:43.285Z,55.79
2022-08-29T17:17:17.261Z,57.36
2022-08-29T17:19:44.666Z,56.73
2022-08-29T17:22:15.764Z,57.51
2022-08-29T17:24:49.234Z,57.75
2022-08-29T17:27:21.593Z,57.34
2022-08-29T17:29:51.604Z,57.20
2022-08-29T17:32:18.606Z,56.96
2022-08-29T17:34:47.906Z,56.74
2022-08-29T17:37:15.079Z,56.73
2022-08-29T17:39:42.064Z,56.68
2022-08-29T17:42:09.326Z,57.83
2022-08-29T17:47:17.251Z,58.66
2022-08-29T17:49:45.038Z,58.35
2022-08-29T17:52:14.375Z,58.51
2022-08-29T17:54:41.318Z,58.98
2022-08-29T17:57:10.474Z,58.92
2022-08-29T17:59:37.535Z,59.08
2022-08-29T18:02:05.292Z,59.01
2022-08-29T18:04:32.513Z,59.09
2022-08-29T18:07:02.687Z,58.77
2022-08-29T18:09:31.752Z,59.30
2022-08-29T18:12:00.546Z,59.48
2022-08-29T18:14:30.610Z,60.85
2022-08-29T18:17:02.014Z,61.47
2022-08-29T18:19:31.809Z,61.78
2022-08-29T18:22:00.007Z,61.35
2022-08-29T18:24:26.994Z,62.29
2022-08-29T18:26:56.169Z,61.84
2022-08-29T18:29:25.280Z,61.32
2022-08-29T18:31:52.181Z,61.68
2022-08-29T18:34:19.952Z,61.79
2022-08-29T18:36:47.774Z,62.90
2022-08-29T18:39:16.456Z,62.16
2022-08-29T18:41:48.509Z,62.21
2022-08-29T18:44:15.589Z,62.09
2022-08-29T18:46:48.193Z,62.56
2022-08-29T18:49:16.385Z,63.85
2022-08-29T18:51:47.055Z,62.96
2022-08-29T18:54:19.099Z,64.07
2022-08-29T18:56:50.925Z,63.34
2022-08-29T18:59:24.281Z,63.33
2022-08-29T19:01:53.750Z,62.77
2022-08-29T19:04:25.179Z,62.39
2022-08-29T19:06:52.597Z,63.03
2022-08-29T19:09:20.070Z,62.56
2022-08-29T19:11:46.996Z,62.86
2022-08-29T19:14:14.160Z,63.15
2022-08-29T19:16:41.626Z,62.93
2022-08-29T19:19:13.176Z,63.29
2022-08-29T19:21:42.953Z,62.82
2022-08-29T19:24:12.328Z,63.48
2022-08-29T19:26:40.101Z,63.78
2022-08-29T19:29:16.979Z,63.30
2022-08-29T19:31:47.090Z,63.85
2022-08-29T19:34:14.048Z,63.56
2022-08-29T19:36:46.952Z,64.02
2022-08-29T19:39:14.609Z,63.70
2022-08-29T19:41:44.470Z,64.01
2022-08-29T19:44:11.437Z,64.45
2022-08-29T19:46:42.590Z,65.13
2022-08-29T19:49:13.334Z,64.61
2022-08-29T19:51:40.510Z,64.80
2022-08-29T19:54:08.516Z,64.79
2022-08-29T19:56:35.592Z,65.25
2022-08-29T19:59:09.090Z,64.97
2022-08-29T20:01:38.446Z,63.99
2022-08-29T20:04:08.006Z,64.05
2022-08-29T20:06:37.623Z,64.08
2022-08-29T20:09:07.320Z,63.86
2022-08-29T20:11:34.712Z,63.08
2022-08-29T20:14:11.298Z,63.92
2022-08-29T20:16:44.951Z,63.83
2022-08-29T20:19:15.644Z,64.24
2022-08-29T20:21:44.993Z,64.05
2022-08-29T20:24:15.465Z,63.83
2022-08-29T20:26:44.769Z,64.66
2022-08-29T20:29:12.688Z,63.85
2022-08-29T20:31:40.403Z,64.91
2022-08-29T20:34:07.400Z,64.52
2022-08-29T20:37:09.826Z,64.80
2022-08-29T20:39:48.696Z,64.12
2022-08-29T20:42:24.770Z,64.59
2022-08-29T20:44:55.383Z,64.91
2022-08-29T20:47:26.451Z,65.26
2022-08-29T20:49:55.951Z,65.68
2022-08-29T20:52:24.327Z,66.03
2022-08-29T20:54:51.925Z,66.13
2022-08-29T20:57:19.131Z,66.27
2022-08-29T20:59:48.360Z,66.46
2022-08-29T21:02:19.437Z,66.81
2022-08-29T21:05:05.138Z,66.93
2022-08-29T21:07:34.287Z,66.98
2022-08-29T21:10:01.866Z,66.91
2022-08-29T21:12:29.193Z,67.10
2022-08-29T21:14:56.201Z,67.10
2022-08-29T21:17:25.272Z,67.07
2022-08-29T21:19:54.675Z,67.11
2022-08-29T21:22:24.794Z,68.17
2022-08-29T21:24:55.138Z,68.17
2022-08-29T21:27:22.167Z,68.07
2022-08-29T21:29:55.499Z,68.59
2022-08-29T21:32:22.579Z,68.21
2022-08-29T21:34:49.906Z,68.18
2022-08-29T21:37:17.075Z,68.14
2022-08-29T21:39:47.681Z,67.77
2022-08-29T21:42:14.744Z,68.04
2022-08-29T21:44:43.968Z,67.89
2022-08-29T21:47:14.761Z,68.50
2022-08-29T21:49:44.131Z,68.32
2022-08-29T21:52:15.539Z,68.82
2022-08-29T21:54:42.456Z,69.00
2022-08-29T21:57:18.108Z,69.19
2022-08-29T21:59:48.544Z,69.59
2022-08-29T22:02:17.436Z,69.40
2022-08-29T22:04:47.329Z,69.95
2022-08-29T22:07:16.420Z,71.00
2022-08-29T22:09:46.738Z,70.70
2022-08-29T22:12:13.615Z,70.57
2022-08-29T22:14:58.906Z,71.03
2022-08-29T22:17:25.798Z,70.48
2022-08-29T22:19:52.792Z,70.59
2022-08-29T22:22:19.755Z,70.12
2022-08-29T22:24:49.472Z,70.21
2022-08-29T22:27:16.391Z,70.18
2022-08-29T22:29:43.815Z,69.83
2022-08-29T22:32:14.045Z,69.59
2022-08-29T22:34:44.080Z,69.22
2022-08-29T22:37:11.394Z,69.45
2022-08-29T22:39:38.382Z,69.62
2022-08-29T22:42:07.886Z,69.73
2022-08-29T22:45:02.131Z,69.59
2022-08-29T22:47:25.735Z,69.70
2022-08-29T22:49:53.489Z,69.83
2022-08-29T22:52:21.485Z,69.23
2022-08-29T22:54:52.941Z,70.32
2022-08-29T22:57:19.931Z,69.84
2022-08-29T22:59:49.927Z,68.96
2022-08-29T23:02:23.349Z,68.96
2022-08-29T23:04:53.209Z,69.71
2022-08-29T23:07:22.361Z,69.71
2022-08-29T23:09:51.712Z,69.54
2022-08-29T23:12:19.370Z,70.14
2022-08-29T23:14:46.663Z,69.97
2022-08-29T23:17:18.171Z,70.61
2022-08-29T23:19:45.191Z,70.44
2022-08-29T23:22:13.836Z,70.68
2022-08-29T23:24:57.937Z,70.47
2022-08-29T23:27:32.394Z,69.52
2022-08-29T23:30:03.502Z,69.51
2022-08-29T23:32:30.473Z,69.41
2022-08-29T23:35:01.468Z,69.83
2022-08-29T23:37:28.765Z,69.02
2022-08-29T23:39:58.190Z,69.16
2022-08-29T23:42:25.213Z,69.85
2022-08-29T23:44:54.682Z,69.40
2022-08-29T23:47:21.591Z,69.32
2022-08-29T23:49:51.095Z,69.25
2022-08-29T23:52:18.100Z,69.27
2022-08-29T23:54:48.110Z,69.43
2022-08-29T23:57:15.117Z,69.01
